Terminal Aerodrome Forecast
Issued by NWS Austin/San Antonio, TX

Home | Current Version | Previous Version | Text Only | Print | Product List | Glossary On
Versions: 1 2 3 4 5 6 7 8 9 10 11 12 13 14 15 16 17
000
FTUS44 KEWX 050558 CCA
TAFSAT
TAF COR
KSAT 050558Z 0506/0612 14008KT P6SM BKN015
     FM050800 17005KT P6SM BKN010
     FM051700 16012KT P6SM SCT040
     FM060900 17010KT P6SM BKN015=

USA.gov is the U.S. government's official web portal to all federal, state and local government web resources and services.